createdAt,value
2023-12-22T00:02:09.940Z,100572.22
2023-12-22T00:07:12.680Z,100549.19
2023-12-22T00:12:15.376Z,100534.63
2023-12-22T00:17:18.027Z,100553.50
2023-12-22T00:22:20.685Z,100490.59
2023-12-22T00:27:23.327Z,100462.53
2023-12-22T00:32:26.438Z,100531.41
2023-12-22T00:37:29.127Z,100527.09
2023-12-22T00:42:31.687Z,100506.19
2023-12-22T00:47:37.005Z,100509.75
2023-12-22T00:52:39.661Z,100511.44
2023-12-22T00:57:42.277Z,100511.25
2023-12-22T01:02:45.432Z,100500.97
2023-12-22T01:07:48.161Z,100487.56
2023-12-22T01:12:50.818Z,100486.09
2023-12-22T01:17:53.739Z,100485.25
2023-12-22T01:22:56.558Z,100474.97
2023-12-22T01:27:59.482Z,100469.88
2023-12-22T01:33:02.742Z,100459.13
2023-12-22T01:38:05.623Z,100450.25
2023-12-22T01:43:08.306Z,100446.09
2023-12-22T01:48:11.319Z,100443.41
2023-12-22T01:53:14.032Z,100457.50
2023-12-22T01:58:16.811Z,100458.28
2023-12-22T02:03:19.653Z,100461.84
2023-12-22T02:08:24.379Z,100449.91
2023-12-22T02:13:27.156Z,100450.75
2023-12-22T02:18:36.672Z,100448.22
2023-12-22T02:23:39.287Z,100460.19
2023-12-22T02:28:42.866Z,100454.97
2023-12-22T02:33:47.490Z,100460.56
2023-12-22T02:38:53.176Z,100454.13
2023-12-22T02:43:55.941Z,100445.81
2023-12-22T02:48:58.596Z,100441.97
2023-12-22T02:54:01.172Z,100443.28
2023-12-22T02:59:03.968Z,100446.56
2023-12-22T03:04:06.677Z,100443.75
2023-12-22T03:09:09.591Z,100443.47
2023-12-22T03:14:12.401Z,100430.69
2023-12-22T03:19:15.138Z,100434.75
2023-12-22T03:24:20.091Z,100423.75
2023-12-22T03:29:22.903Z,100428.16
2023-12-22T03:34:25.507Z,100421.34
2023-12-22T03:39:28.235Z,100412.47
2023-12-22T03:44:30.793Z,100404.53
2023-12-22T03:49:33.270Z,100404.16
2023-12-22T03:54:35.974Z,100400.03
2023-12-22T03:59:38.569Z,100386.03
2023-12-22T04:04:41.599Z,100387.44
2023-12-22T04:09:44.141Z,100376.50
2023-12-22T04:14:46.803Z,100384.34
2023-12-22T04:19:49.585Z,100389.94
2023-12-22T04:24:52.194Z,100389.41
2023-12-22T04:29:54.743Z,100394.91
2023-12-22T04:34:57.402Z,100400.22
2023-12-22T04:39:59.979Z,100389.31
2023-12-22T04:45:02.726Z,100382.28
2023-12-22T04:50:06.799Z,100381.56
2023-12-22T04:55:09.496Z,100381.75
2023-12-22T05:00:12.800Z,100386.69
2023-12-22T05:05:15.433Z,100386.97
2023-12-22T05:10:18.193Z,100384.53
2023-12-22T05:15:21.225Z,100375.19
2023-12-22T05:20:23.792Z,100387.16
2023-12-22T05:25:26.523Z,100382.41
2023-12-22T05:30:29.071Z,100379.13
2023-12-22T05:35:31.950Z,100378.47
2023-12-22T05:40:34.710Z,100381.91
2023-12-22T05:45:37.493Z,100371.66
2023-12-22T05:50:40.124Z,100366.59
2023-12-22T05:55:42.748Z,100368.66
2023-12-22T06:00:45.326Z,100371.84
2023-12-22T06:05:48.724Z,100363.25
2023-12-22T06:10:51.500Z,100370.63
2023-12-22T06:15:54.053Z,100382.44
2023-12-22T06:20:56.838Z,100376.16
2023-12-22T06:25:59.616Z,100366.22
2023-12-22T06:31:02.421Z,100362.47
2023-12-22T06:36:05.230Z,100373.84
2023-12-22T06:41:07.985Z,100361.16
2023-12-22T06:46:17.509Z,100369.13
2023-12-22T06:51:27.674Z,100367.78
2023-12-22T06:56:32.862Z,100361.25
2023-12-22T07:01:37.185Z,100369.09
2023-12-22T07:06:40.238Z,100371.22
2023-12-22T07:11:44.924Z,100355.34
2023-12-22T07:16:47.568Z,100361.59
2023-12-22T07:21:50.990Z,100361.97
2023-12-22T07:26:54.725Z,100354.25
2023-12-22T07:31:57.967Z,100351.94
2023-12-22T07:37:06.277Z,100346.56
2023-12-22T07:42:10.184Z,100337.88
2023-12-22T07:47:12.728Z,100326.25
2023-12-22T07:52:15.357Z,100319.63
2023-12-22T07:57:17.917Z,100298.75
2023-12-22T08:02:20.722Z,100287.88
2023-12-22T08:07:23.453Z,100287.88
2023-12-22T08:12:25.967Z,100280.09
2023-12-22T08:17:29.300Z,100273.94
2023-12-22T08:22:33.084Z,100273.13
2023-12-22T08:27:36.466Z,100275.63
2023-12-22T08:32:39.803Z,100279.38
2023-12-22T08:37:42.410Z,100266.38
2023-12-22T08:42:45.016Z,100263.88
2023-12-22T08:47:47.964Z,100252.06
2023-12-22T08:52:50.764Z,100257.59
2023-12-22T08:57:59.908Z,100252.78
2023-12-22T09:03:05.915Z,100238.97
2023-12-22T09:08:08.574Z,100232.38
2023-12-22T09:13:11.887Z,100232.88
2023-12-22T09:18:15.478Z,100228.47
2023-12-22T09:23:18.235Z,100222.63
2023-12-22T09:28:20.868Z,100210.56
2023-12-22T09:33:24.515Z,100209.63
2023-12-22T09:38:27.277Z,100212.56
2023-12-22T09:43:30.638Z,100210.03
2023-12-22T09:48:36.986Z,100198.31
2023-12-22T09:53:41.215Z,100192.53
2023-12-22T09:58:43.949Z,100186.03
2023-12-22T10:03:48.641Z,100185.31
2023-12-22T10:08:52.961Z,100167.91
2023-12-22T10:13:56.925Z,100156.63
2023-12-22T10:19:01.844Z,100150.94
2023-12-22T10:24:04.755Z,100146.94
2023-12-22T10:29:09.554Z,100151.59
2023-12-22T10:34:12.583Z,100155.53
2023-12-22T10:39:15.509Z,100171.47
2023-12-22T10:44:21.475Z,100176.94
2023-12-22T10:49:24.921Z,100182.16
2023-12-22T10:54:28.771Z,100172.31
2023-12-22T10:59:36.016Z,100201.44
2023-12-22T11:04:40.615Z,100195.56
2023-12-22T11:09:47.079Z,100185.28
2023-12-22T11:14:52.344Z,100167.81
2023-12-22T11:19:56.509Z,100170.44
2023-12-22T11:25:00.585Z,100161.66
2023-12-22T11:30:05.211Z,100159.97
2023-12-22T11:35:12.490Z,100162.06
2023-12-22T11:40:15.230Z,100166.22
2023-12-22T11:45:19.451Z,100168.34
2023-12-22T11:50:31.831Z,100158.28
2023-12-22T11:56:12.189Z,100155.53
2023-12-22T12:01:15.182Z,100153.25
2023-12-22T12:06:27.987Z,100142.56
2023-12-22T12:12:03.247Z,100157.03
2023-12-22T12:17:12.617Z,100159.09
2023-12-22T12:22:15.379Z,100162.47
2023-12-22T12:27:24.071Z,100164.59
2023-12-22T12:32:27.969Z,100159.94
2023-12-22T12:37:30.920Z,100155.13
2023-12-22T12:42:34.219Z,100152.19
2023-12-22T12:47:37.009Z,100156.81
2023-12-22T12:52:40.166Z,100166.03
2023-12-22T12:57:42.855Z,100166.22
2023-12-22T13:02:45.636Z,100168.97
2023-12-22T13:07:48.555Z,100163.94
2023-12-22T13:12:52.806Z,100148.22
2023-12-22T13:17:56.534Z,100146.66
2023-12-22T13:22:59.370Z,100155.13
2023-12-22T13:28:01.945Z,100157.88
2023-12-22T13:33:04.884Z,100159.34
2023-12-22T13:38:08.866Z,100155.84
2023-12-22T13:43:11.602Z,100150.72
2023-12-22T13:48:17.815Z,100160.16
2023-12-22T13:53:20.623Z,100167.06
2023-12-22T13:58:23.381Z,100167.47
2023-12-22T14:03:26.512Z,100165.69
2023-12-22T14:08:29.106Z,100148.41
2023-12-22T14:13:33.062Z,100157.63
2023-12-22T14:18:36.380Z,100155.22
2023-12-22T14:23:39.313Z,100155.66
2023-12-22T14:28:42.843Z,100146.50
2023-12-22T14:33:45.511Z,100154.66
2023-12-22T14:38:48.210Z,100157.38
2023-12-22T14:43:50.790Z,100147.09
2023-12-22T14:48:53.579Z,100140.94
2023-12-22T14:53:56.432Z,100142.81
2023-12-22T14:58:59.239Z,100136.44
2023-12-22T15:04:02.850Z,100119.25
2023-12-22T15:09:05.709Z,100103.56
2023-12-22T15:14:08.417Z,100110.19
2023-12-22T15:19:11.089Z,100102.84
2023-12-22T15:24:13.824Z,100105.22
2023-12-22T15:29:17.041Z,100103.78
2023-12-22T15:34:19.745Z,100105.00
2023-12-22T15:39:22.796Z,100096.81
2023-12-22T15:44:25.573Z,100098.75
2023-12-22T15:49:29.201Z,100086.28
2023-12-22T15:54:31.949Z,100098.09
2023-12-22T15:59:34.493Z,100079.69
2023-12-22T16:04:37.124Z,100081.19
2023-12-22T16:09:39.739Z,100072.47
2023-12-22T16:14:42.621Z,100072.47
2023-12-22T16:19:45.280Z,100076.66
2023-12-22T16:24:47.885Z,100071.00
2023-12-22T16:29:50.544Z,100065.44
2023-12-22T16:34:53.282Z,100066.72
2023-12-22T16:39:55.939Z,100065.03
2023-12-22T16:45:00.597Z,100070.47
2023-12-22T16:50:03.721Z,100065.22
2023-12-22T16:55:07.405Z,100068.88
2023-12-22T17:00:11.197Z,100067.75
2023-12-22T17:05:14.291Z,100051.22
2023-12-22T17:10:17.047Z,100047.44
2023-12-22T17:15:21.201Z,100047.94
2023-12-22T17:20:23.861Z,100032.06
2023-12-22T17:25:26.687Z,100036.16
2023-12-22T17:30:29.271Z,100027.16
2023-12-22T17:35:31.955Z,100029.25
2023-12-22T17:40:35.160Z,100026.94
2023-12-22T17:45:37.847Z,100023.28
2023-12-22T17:50:42.365Z,100007.78
2023-12-22T17:55:44.981Z,100006.66
2023-12-22T18:00:47.597Z,100009.47
2023-12-22T18:05:50.221Z,100006.09
2023-12-22T18:10:52.970Z,99983.59
2023-12-22T18:15:56.131Z,99981.94
2023-12-22T18:21:00.176Z,99961.63
2023-12-22T18:26:03.592Z,99982.97
2023-12-22T18:31:06.357Z,99974.78
2023-12-22T18:36:09.367Z,99974.19
2023-12-22T18:41:12.402Z,99980.13
2023-12-22T18:46:15.068Z,99973.81
2023-12-22T18:51:20.009Z,99954.47
2023-12-22T18:56:24.167Z,99957.41
2023-12-22T19:01:35.747Z,99954.47
2023-12-22T19:06:47.502Z,99952.84
2023-12-22T19:11:50.174Z,99952.56
2023-12-22T19:16:52.786Z,99946.28
2023-12-22T19:21:55.388Z,99941.06
2023-12-22T19:26:57.926Z,99947.13
2023-12-22T19:32:00.656Z,99940.25
2023-12-22T19:37:03.244Z,99936.22
2023-12-22T19:42:06.703Z,99941.34
2023-12-22T19:47:09.403Z,99943.56
2023-12-22T19:52:12.036Z,99941.91
2023-12-22T19:57:14.692Z,99931.66
2023-12-22T20:02:17.384Z,99934.09
2023-12-22T20:07:20.152Z,99935.44
2023-12-22T20:12:22.781Z,99935.75
2023-12-22T20:17:25.734Z,99928.34
2023-12-22T20:22:28.311Z,99935.44
2023-12-22T20:27:30.868Z,99935.63
2023-12-22T20:32:33.453Z,99937.16
2023-12-22T20:37:36.603Z,99925.19
2023-12-22T20:42:39.317Z,99919.53
2023-12-22T20:47:41.979Z,99916.28
2023-12-22T20:52:44.735Z,99919.69
2023-12-22T20:57:49.437Z,99916.84
2023-12-22T21:02:52.343Z,99917.25
2023-12-22T21:07:55.022Z,99905.22
2023-12-22T21:12:58.973Z,99908.75
2023-12-22T21:18:02.030Z,99902.28
2023-12-22T21:23:14.876Z,99904.53
2023-12-22T21:28:19.570Z,99900.81
2023-12-22T21:33:22.554Z,99890.94
2023-12-22T21:38:25.346Z,99889.63
2023-12-22T21:43:28.000Z,99876.22
2023-12-22T21:48:30.697Z,99873.78
2023-12-22T21:53:33.344Z,99862.97
2023-12-22T21:58:35.969Z,99862.56
2023-12-22T22:03:39.660Z,99861.09
2023-12-22T22:08:42.281Z,99862.97
2023-12-22T22:13:44.925Z,99863.47
2023-12-22T22:18:47.721Z,99866.56
2023-12-22T22:23:50.443Z,99862.78
2023-12-22T22:28:53.033Z,99842.47
2023-12-22T22:33:56.470Z,99843.19
2023-12-22T22:38:59.143Z,99837.91
2023-12-22T22:44:01.993Z,99833.50
2023-12-22T22:49:04.633Z,99836.75
2023-12-22T22:54:07.230Z,99843.31
2023-12-22T22:59:09.951Z,99844.88
2023-12-22T23:04:13.675Z,99846.22
2023-12-22T23:09:16.400Z,99849.97
2023-12-22T23:14:19.452Z,99850.72
2023-12-22T23:19:23.075Z,99848.84
2023-12-22T23:24:25.746Z,99833.09
2023-12-22T23:29:28.636Z,99839.75
2023-12-22T23:34:31.345Z,99833.31
2023-12-22T23:39:33.972Z,99820.91
2023-12-22T23:44:37.096Z,99813.19
2023-12-22T23:49:39.683Z,99814.97
2023-12-22T23:54:42.496Z,99816.59
2023-12-22T23:59:45.026Z,99808.69
